Time;durP1;ratioP1;P1;durP2;ratioP2;P2;SDS_P1;SDS_P2;PMS_P1;PMS_P2;Temp;Humidity;BMP_temperature;BMP_pressure;BME280_temperature;BME280_humidity;BME280_pressure;Samples;Min_cycle;Max_cycle;Signal;HPM_P1;HPM_P2
2023/07/15 00:00:36;;;;;;;4.43;3.15;;;22.90;1.00;;;;;;7388334;19;20044;-65
2023/07/15 00:03:06;;;;;;;9.38;3.47;;;22.90;1.00;;;;;;7387041;19;20029;-65
2023/07/15 00:05:37;;;;;;;6.63;2.92;;;22.90;1.00;;;;;;7387065;19;20614;-65
2023/07/15 00:08:09;;;;;;;4.88;2.60;;;22.90;1.00;;;;;;7387999;19;20370;-65
2023/07/15 00:10:40;;;;;;;7.13;2.60;;;23.00;1.00;;;;;;7387482;19;20018;-65
2023/07/15 00:13:16;;;;;;;3.70;2.83;;;23.00;1.00;;;;;;7388409;19;20010;-65
2023/07/15 00:15:50;;;;;;;3.28;2.60;;;23.00;1.00;;;;;;7394195;19;20011;-65
2023/07/15 00:18:20;;;;;;;3.53;2.63;;;23.00;1.00;;;;;;7396098;19;20018;-65
2023/07/15 00:20:51;;;;;;;4.30;2.80;;;22.90;1.00;;;;;;7394375;19;20014;-65
2023/07/15 00:23:23;;;;;;;4.90;2.75;;;22.90;1.00;;;;;;7392909;19;20035;-65
2023/07/15 00:25:54;;;;;;;4.18;2.90;;;22.80;1.00;;;;;;7395597;19;20106;-65
2023/07/15 00:28:27;;;;;;;7.22;3.20;;;22.80;1.00;;;;;;7395766;19;20407;-65
2023/07/15 00:30:57;;;;;;;6.53;3.60;;;22.90;1.00;;;;;;7391977;19;20365;-65
2023/07/15 00:33:28;;;;;;;4.80;3.05;;;23.00;1.00;;;;;;7393110;19;20396;-63
2023/07/15 00:35:58;;;;;;;5.57;3.63;;;22.90;1.00;;;;;;7395427;19;20014;-63
2023/07/15 00:38:28;;;;;;;7.38;3.22;;;22.80;1.00;;;;;;7394860;19;20030;-64
2023/07/15 00:40:58;;;;;;;4.15;2.95;;;22.70;1.00;;;;;;7393413;19;20010;-64
2023/07/15 00:43:56;;;;;;;4.90;2.60;;;22.70;1.00;;;;;;7392566;19;20074;-63
2023/07/15 00:47:01;;;;;;;4.78;2.92;;;22.60;1.00;;;;;;7396525;19;20025;-64
2023/07/15 00:49:33;;;;;;;8.48;3.40;;;22.60;1.00;;;;;;7394428;19;20031;-64
2023/07/15 00:52:08;;;;;;;4.82;3.00;;;22.50;1.00;;;;;;7393639;19;20011;-63
2023/07/15 00:54:41;;;;;;;4.13;2.70;;;22.40;1.00;;;;;;7394689;19;20021;-63
2023/07/15 00:57:14;;;;;;;5.38;3.05;;;22.50;1.00;;;;;;7395060;19;20010;-64
2023/07/15 00:59:45;;;;;;;4.97;3.03;;;22.50;1.00;;;;;;7393761;19;20015;-63
2023/07/15 01:02:18;;;;;;;5.53;3.53;;;22.50;1.00;;;;;;7393881;19;20370;-64
2023/07/15 01:04:48;;;;;;;3.83;3.10;;;22.50;1.00;;;;;;7394029;19;20034;-63
2023/07/15 01:07:18;;;;;;;4.43;3.17;;;22.60;1.00;;;;;;7392939;19;20003;-63
2023/07/15 01:09:50;;;;;;;5.45;3.75;;;22.60;1.00;;;;;;7392328;19;20086;-64
2023/07/15 01:12:20;;;;;;;5.15;4.18;;;22.40;1.00;;;;;;7394560;19;20038;-63
2023/07/15 01:14:51;;;;;;;5.47;3.90;;;22.50;1.00;;;;;;7392329;19;20031;-64
2023/07/15 01:17:24;;;;;;;5.50;4.05;;;22.40;1.00;;;;;;7393905;19;20042;-63
2023/07/15 01:19:55;;;;;;;7.13;4.65;;;22.30;1.00;;;;;;7392897;19;20014;-64
2023/07/15 01:22:26;;;;;;;6.43;4.38;;;22.40;1.00;;;;;;7393256;19;20018;-63
2023/07/15 01:24:59;;;;;;;6.28;4.20;;;22.30;1.00;;;;;;7393111;19;20037;-63
2023/07/15 01:27:29;;;;;;;5.07;3.75;;;22.30;1.00;;;;;;7394428;19;20501;-63
2023/07/15 01:29:59;;;;;;;5.50;3.20;;;22.30;1.00;;;;;;7392881;19;20011;-63
2023/07/15 01:32:29;;;;;;;5.47;2.80;;;22.20;1.00;;;;;;7393868;19;20074;-63
2023/07/15 01:34:59;;;;;;;7.03;3.50;;;22.00;1.00;;;;;;7393149;19;20011;-63
2023/07/15 01:37:28;;;;;;;5.38;3.10;;;21.90;1.00;;;;;;7393980;19;20007;-64
2023/07/15 01:40:02;;;;;;;6.28;3.20;;;21.80;1.00;;;;;;7390979;19;20163;-63
2023/07/15 01:42:32;;;;;;;3.53;2.88;;;21.70;1.00;;;;;;7392775;19;20019;-64
2023/07/15 01:45:02;;;;;;;6.95;3.33;;;21.60;1.00;;;;;;7392728;19;20018;-63
2023/07/15 01:47:32;;;;;;;4.75;3.33;;;21.30;1.00;;;;;;7392963;19;20410;-63
2023/07/15 01:50:05;;;;;;;5.72;3.63;;;21.10;1.00;;;;;;7391924;19;20039;-64
2023/07/15 01:52:35;;;;;;;5.13;3.45;;;21.00;1.00;;;;;;7392825;19;20014;-63
2023/07/15 01:55:08;;;;;;;5.22;3.40;;;20.90;1.00;;;;;;7392374;19;20474;-64
2023/07/15 01:57:38;;;;;;;5.40;3.60;;;20.80;1.00;;;;;;7393118;19;20011;-64
2023/07/15 02:00:10;;;;;;;5.07;3.33;;;20.80;1.00;;;;;;7391649;19;20494;-64
2023/07/15 02:02:40;;;;;;;5.05;3.35;;;20.80;1.00;;;;;;7392127;19;20078;-64
2023/07/15 02:05:10;;;;;;;4.80;3.20;;;20.70;1.00;;;;;;7392022;19;20006;-64
2023/07/15 02:07:40;;;;;;;5.32;3.60;;;20.70;1.00;;;;;;7392890;19;20776;-64
2023/07/15 02:10:13;;;;;;;6.32;3.22;;;20.70;1.00;;;;;;7391631;19;20027;-64
2023/07/15 02:12:43;;;;;;;5.50;3.25;;;20.60;1.00;;;;;;7392426;19;20014;-64
2023/07/15 02:15:13;;;;;;;7.45;3.70;;;20.60;1.00;;;;;;7391793;19;20089;-64
2023/07/15 02:17:43;;;;;;;5.38;3.50;;;20.70;1.00;;;;;;7392070;19;20031;-64
2023/07/15 02:20:14;;;;;;;6.65;3.30;;;20.70;1.00;;;;;;7390942;19;20014;-63
2023/07/15 02:22:44;;;;;;;4.43;3.10;;;20.80;1.00;;;;;;7391473;19;20380;-64
2023/07/15 02:25:16;;;;;;;5.97;3.08;;;20.80;1.00;;;;;;7391726;19;20019;-64
2023/07/15 02:27:46;;;;;;;3.88;3.20;;;20.90;1.00;;;;;;7392035;19;20007;-63
2023/07/15 02:30:16;;;;;;;6.90;3.58;;;21.10;1.00;;;;;;7390611;19;20115;-64
2023/07/15 02:32:47;;;;;;;4.78;2.90;;;21.10;1.00;;;;;;7392076;19;20010;-64
2023/07/15 02:35:17;;;;;;;4.75;3.50;;;21.10;1.00;;;;;;7391479;19;20082;-64
2023/07/15 02:37:48;;;;;;;5.55;3.38;;;21.10;1.00;;;;;;7389771;19;20006;-64
2023/07/15 02:40:21;;;;;;;4.03;3.40;;;21.10;1.00;;;;;;7391836;19;20014;-64
2023/07/15 02:42:51;;;;;;;5.72;3.70;;;21.10;1.00;;;;;;7391025;19;20482;-64
2023/07/15 02:45:21;;;;;;;4.10;3.70;;;21.10;1.00;;;;;;7391605;19;20517;-64
2023/07/15 02:47:51;;;;;;;6.57;3.28;;;21.00;1.00;;;;;;7391461;19;20011;-64
2023/07/15 02:50:21;;;;;;;4.82;3.42;;;21.00;1.00;;;;;;7390120;19;20034;-65
2023/07/15 02:52:51;;;;;;;4.88;3.42;;;21.10;1.00;;;;;;7391052;19;20039;-65
2023/07/15 02:55:24;;;;;;;6.07;4.00;;;21.10;1.00;;;;;;7390487;19;20018;-65
2023/07/15 02:57:54;;;;;;;6.22;3.33;;;21.20;1.00;;;;;;7391387;19;20006;-65
2023/07/15 03:00:24;;;;;;;6.85;3.15;;;21.30;1.00;;;;;;7389927;19;20035;-65
2023/07/15 03:02:54;;;;;;;3.75;3.08;;;21.10;1.00;;;;;;7390475;19;20454;-65
2023/07/15 03:05:24;;;;;;;6.63;3.30;;;21.20;1.00;;;;;;7390163;19;20015;-63
2023/07/15 03:07:54;;;;;;;4.90;3.20;;;21.20;1.00;;;;;;7390734;19;20046;-64
2023/07/15 03:10:27;;;;;;;4.07;2.92;;;21.20;1.00;;;;;;7389817;19;20011;-64
2023/07/15 03:12:57;;;;;;;6.18;2.88;;;21.30;1.00;;;;;;7390618;19;20050;-64
2023/07/15 03:15:27;;;;;;;2.90;2.55;;;21.30;1.00;;;;;;7389951;19;20018;-63
2023/07/15 03:17:56;;;;;;;4.13;3.05;;;21.10;1.00;;;;;;7390589;19;20011;-63
2023/07/15 03:20:27;;;;;;;3.83;2.83;;;21.00;1.00;;;;;;7389136;19;20428;-63
2023/07/15 03:23:00;;;;;;;3.05;2.47;;;20.90;1.00;;;;;;7390197;19;20018;-64
2023/07/15 03:25:33;;;;;;;3.78;2.55;;;20.80;1.00;;;;;;7389640;19;20088;-64
2023/07/15 03:28:03;;;;;;;3.80;3.10;;;20.90;1.00;;;;;;7388695;19;20018;-63
2023/07/15 03:30:33;;;;;;;6.22;3.33;;;20.90;1.00;;;;;;7388638;19;20022;-65
2023/07/15 03:33:03;;;;;;;4.47;3.45;;;20.80;1.00;;;;;;7389920;19;20443;-65
2023/07/15 03:35:33;;;;;;;4.22;3.20;;;20.70;1.00;;;;;;7389338;19;20042;-65
2023/07/15 03:38:05;;;;;;;3.67;3.08;;;20.60;1.00;;;;;;7389931;19;20014;-64
2023/07/15 03:40:37;;;;;;;3.10;2.80;;;20.60;1.00;;;;;;7388378;19;20474;-64
2023/07/15 03:43:07;;;;;;;3.72;3.13;;;20.60;1.00;;;;;;7389423;19;20014;-64
2023/07/15 03:45:37;;;;;;;4.07;2.97;;;20.70;1.00;;;;;;7390169;19;20490;-64
2023/07/15 03:48:07;;;;;;;5.65;3.25;;;20.70;1.00;;;;;;7388380;19;20350;-64
2023/07/15 03:50:38;;;;;;;3.75;3.20;;;20.70;1.00;;;;;;7395628;19;20030;-64
2023/07/15 03:53:08;;;;;;;3.53;3.10;;;20.90;1.00;;;;;;7397309;19;20019;-64
2023/07/15 03:55:40;;;;;;;3.88;2.95;;;21.00;1.00;;;;;;7396435;19;20023;-64
2023/07/15 03:58:11;;;;;;;5.22;2.92;;;21.80;1.00;;;;;;7397213;19;20018;-64
2023/07/15 04:00:41;;;;;;;6.53;3.30;;;22.50;1.00;;;;;;7394916;19;20022;-64
2023/07/15 04:03:11;;;;;;;3.75;2.80;;;23.10;1.00;;;;;;7396681;19;20074;-65
2023/07/15 04:05:41;;;;;;;3.65;2.88;;;23.10;1.00;;;;;;7393203;19;20031;-64
2023/07/15 04:08:11;;;;;;;6.65;3.60;;;23.10;1.00;;;;;;7396372;19;20031;-65
2023/07/15 04:10:43;;;;;;;3.33;2.70;;;23.20;1.00;;;;;;7394579;19;20038;-64
2023/07/15 04:13:13;;;;;;;4.50;2.92;;;23.60;1.00;;;;;;7396490;19;20018;-65
2023/07/15 04:15:43;;;;;;;7.38;2.67;;;24.20;1.00;;;;;;7393809;19;20576;-65
2023/07/15 04:18:13;;;;;;;5.53;3.15;;;24.30;1.00;;;;;;7396193;19;20029;-64
2023/07/15 04:20:43;;;;;;;3.10;2.65;;;24.70;1.00;;;;;;7393976;19;20049;-65
2023/07/15 04:23:13;;;;;;;4.47;3.40;;;24.90;1.00;;;;;;7394722;19;20040;-65
2023/07/15 04:25:46;;;;;;;3.75;2.78;;;25.40;1.00;;;;;;7393109;19;20011;-65
2023/07/15 04:28:17;;;;;;;4.05;2.92;;;25.30;1.00;;;;;;7396075;19;20022;-65
2023/07/15 04:30:46;;;;;;;4.88;2.97;;;25.80;1.00;;;;;;7393680;19;20034;-65
2023/07/15 04:33:17;;;;;;;4.00;2.92;;;26.10;1.00;;;;;;7396010;19;20007;-65
2023/07/15 04:35:47;;;;;;;5.65;3.25;;;26.40;1.00;;;;;;7395391;19;20462;-65
2023/07/15 04:38:17;;;;;;;3.53;2.83;;;27.20;1.00;;;;;;7395616;19;20014;-65
2023/07/15 04:40:50;;;;;;;5.18;3.30;;;27.10;1.00;;;;;;7393969;19;20044;-65
2023/07/15 04:43:22;;;;;;;5.45;2.90;;;27.10;1.00;;;;;;7395342;19;20046;-65
2023/07/15 04:45:52;;;;;;;3.85;2.95;;;26.70;1.00;;;;;;7394339;19;20011;-64
2023/07/15 04:48:23;;;;;;;4.75;2.80;;;27.60;1.00;;;;;;7395285;19;20035;-65
2023/07/15 04:50:53;;;;;;;6.05;3.00;;;26.90;1.00;;;;;;7393146;19;20038;-65
2023/07/15 04:53:23;;;;;;;3.47;2.80;;;27.20;1.00;;;;;;7394932;19;20014;-65
2023/07/15 04:55:55;;;;;;;3.97;2.45;;;28.00;1.00;;;;;;7394688;19;20018;-65
2023/07/15 04:58:25;;;;;;;5.05;2.78;;;27.80;1.00;;;;;;7394954;19;20033;-65
2023/07/15 05:00:55;;;;;;;2.92;2.50;;;27.60;1.00;;;;;;7391497;19;20087;-65
2023/07/15 05:03:25;;;;;;;2.47;2.28;;;27.90;1.00;;;;;;7394536;19;20018;-65
2023/07/15 05:05:55;;;;;;;5.97;3.10;;;29.00;1.00;;;;;;7392074;19;20014;-65
2023/07/15 05:08:25;;;;;;;7.75;2.85;;;28.80;1.00;;;;;;7394415;19;20035;-64
2023/07/15 05:10:58;;;;;;;4.53;2.47;;;28.80;1.00;;;;;;7392427;19;20031;-65
2023/07/15 05:13:28;;;;;;;3.15;2.85;;;29.10;1.00;;;;;;7394091;19;20034;-64
2023/07/15 05:15:58;;;;;;;4.00;2.40;;;28.90;1.00;;;;;;7394706;19;20007;-64
2023/07/15 05:18:29;;;;;;;4.32;2.58;;;28.60;1.00;;;;;;7393910;19;20058;-64
2023/07/15 05:20:58;;;;;;;3.20;2.40;;;29.40;1.00;;;;;;7390504;19;20358;-64
2023/07/15 05:23:31;;;;;;;4.05;2.50;;;29.40;1.00;;;;;;7394090;19;20081;-64
2023/07/15 05:26:04;;;;;;;6.45;3.13;;;28.70;1.00;;;;;;7392007;19;20026;-64
2023/07/15 05:28:35;;;;;;;4.00;2.80;;;28.90;1.00;;;;;;7393402;19;20038;-65
2023/07/15 05:31:05;;;;;;;4.05;2.25;;;29.60;1.00;;;;;;7391693;19;20028;-64
2023/07/15 05:33:36;;;;;;;4.00;2.53;;;29.20;1.00;;;;;;7392994;19;20022;-64
2023/07/15 05:36:07;;;;;;;3.53;2.40;;;29.70;1.00;;;;;;7393299;19;20096;-64
2023/07/15 05:38:45;;;;;;;4.05;2.80;;;29.70;1.00;;;;;;7393247;19;20400;-64
2023/07/15 05:41:18;;;;;;;4.13;2.72;;;30.10;1.00;;;;;;7391397;19;20082;-63
2023/07/15 05:43:47;;;;;;;4.40;2.88;;;30.30;1.00;;;;;;7391221;19;20038;-66
2023/07/15 05:46:17;;;;;;;6.00;2.50;;;29.70;1.00;;;;;;7394204;19;20070;-65
2023/07/15 05:48:47;;;;;;;3.05;2.65;;;30.80;1.00;;;;;;7393202;19;20014;-65
2023/07/15 05:51:18;;;;;;;3.38;2.40;;;30.40;1.00;;;;;;7391037;19;20015;-65
2023/07/15 05:53:48;;;;;;;3.20;2.63;;;29.70;1.00;;;;;;7392458;19;20014;-65
2023/07/15 05:56:20;;;;;;;3.63;2.55;;;30.20;1.00;;;;;;7392379;19;20505;-65
2023/07/15 05:58:53;;;;;;;4.53;2.67;;;29.00;1.00;;;;;;7392841;19;20014;-63
2023/07/15 06:01:23;;;;;;;3.22;2.35;;;29.50;1.00;;;;;;7390857;19;20024;-64
2023/07/15 06:03:53;;;;;;;4.60;2.70;;;29.00;1.00;;;;;;7391572;19;20018;-64
2023/07/15 06:06:23;;;;;;;3.05;2.30;;;29.30;1.00;;;;;;7390050;19;20018;-64
2023/07/15 06:08:53;;;;;;;4.75;2.40;;;29.60;1.00;;;;;;7391885;19;20538;-65
2023/07/15 06:11:25;;;;;;;5.88;2.80;;;28.40;1.00;;;;;;7389625;19;20018;-65
2023/07/15 06:13:57;;;;;;;2.88;2.55;;;29.50;1.00;;;;;;7388657;19;20106;-64
2023/07/15 06:16:27;;;;;;;3.65;2.58;;;29.30;1.00;;;;;;7392002;19;20027;-64
2023/07/15 06:18:57;;;;;;;3.22;2.50;;;29.70;1.00;;;;;;7391666;19;20371;-65
2023/07/15 06:21:28;;;;;;;3.67;2.53;;;28.20;1.00;;;;;;7389609;19;20027;-63
2023/07/15 06:23:57;;;;;;;3.80;2.20;;;27.90;1.00;;;;;;7389829;19;20022;-64
2023/07/15 06:26:30;;;;;;;4.22;2.70;;;27.90;1.00;;;;;;7390510;19;20120;-64
2023/07/15 06:29:00;;;;;;;5.90;2.67;;;28.40;1.00;;;;;;7391350;19;20347;-64
2023/07/15 06:31:30;;;;;;;4.93;2.25;;;28.30;1.00;;;;;;7388034;19;20038;-64
2023/07/15 06:34:00;;;;;;;5.95;3.05;;;29.70;1.00;;;;;;7390952;19;20029;-65
2023/07/15 06:36:30;;;;;;;4.32;2.78;;;29.40;1.00;;;;;;7391154;19;20022;-65
2023/07/15 06:39:00;;;;;;;2.70;2.08;;;29.50;1.00;;;;;;7391458;19;20104;-64
2023/07/15 06:41:33;;;;;;;4.07;2.50;;;29.60;1.00;;;;;;7389817;19;20014;-65
2023/07/15 06:44:03;;;;;;;5.20;2.50;;;29.40;1.00;;;;;;7391082;19;20019;-64
2023/07/15 06:46:33;;;;;;;3.38;2.22;;;29.10;1.00;;;;;;7392685;19;20011;-64
2023/07/15 06:49:03;;;;;;;4.85;2.40;;;29.80;1.00;;;;;;7390956;19;20007;-64
2023/07/15 06:51:33;;;;;;;3.00;2.30;;;29.80;1.00;;;;;;7389535;19;20031;-64
2023/07/15 06:54:03;;;;;;;2.70;2.10;;;29.40;1.00;;;;;;7388414;19;20092;-63
2023/07/15 06:56:36;;;;;;;4.18;2.47;;;28.50;1.00;;;;;;7390580;19;20027;-64
2023/07/15 06:59:07;;;;;;;3.10;1.87;;;27.90;1.00;;;;;;7390370;19;20059;-65
2023/07/15 07:01:37;;;;;;;4.95;2.20;;;27.80;1.00;;;;;;7388902;19;20279;-64
2023/07/15 07:04:07;;;;;;;2.47;2.00;;;27.80;1.00;;;;;;7389961;19;20018;-65
2023/07/15 07:06:37;;;;;;;3.72;2.17;;;28.10;1.00;;;;;;7389576;19;20021;-64
2023/07/15 07:09:07;;;;;;;2.88;2.22;;;28.30;1.00;;;;;;7389919;19;20037;-65
2023/07/15 07:11:40;;;;;;;3.40;2.10;;;28.20;1.00;;;;;;7386834;19;20022;-63
2023/07/15 07:14:10;;;;;;;3.17;2.10;;;28.70;1.00;;;;;;7389442;19;20003;-64
2023/07/15 07:16:40;;;;;;;3.88;2.28;;;28.60;1.00;;;;;;7390011;19;20024;-65
2023/07/15 07:19:10;;;;;;;4.55;2.25;;;28.70;1.00;;;;;;7389142;19;20018;-63
2023/07/15 07:21:40;;;;;;;4.82;2.20;;;28.70;1.00;;;;;;7387856;19;20474;-64
2023/07/15 07:24:10;;;;;;;2.80;2.03;;;28.90;1.00;;;;;;7388530;19;20038;-64
2023/07/15 07:26:42;;;;;;;6.95;2.33;;;29.20;1.00;;;;;;7388562;19;20020;-64
2023/07/15 07:29:12;;;;;;;4.25;2.10;;;29.00;1.00;;;;;;7389234;19;20034;-64
2023/07/15 07:31:42;;;;;;;5.60;2.20;;;29.30;1.00;;;;;;7387437;19;20088;-64
2023/07/15 07:34:12;;;;;;;3.13;1.95;;;29.70;1.00;;;;;;7388979;19;20011;-64
2023/07/15 07:36:42;;;;;;;3.65;2.08;;;29.70;1.00;;;;;;7389591;19;20030;-64
2023/07/15 07:39:12;;;;;;;3.55;1.90;;;29.80;1.00;;;;;;7388637;19;20541;-64
2023/07/15 07:41:45;;;;;;;2.67;2.17;;;30.10;1.00;;;;;;7385749;19;20046;-64
2023/07/15 07:44:15;;;;;;;3.35;2.38;;;30.40;1.00;;;;;;7388500;19;20011;-66
2023/07/15 07:46:46;;;;;;;3.05;2.10;;;30.40;1.00;;;;;;7391022;19;20011;-66
2023/07/15 07:49:16;;;;;;;2.28;2.00;;;30.80;1.00;;;;;;7388426;19;20018;-65
2023/07/15 07:51:46;;;;;;;2.67;2.20;;;31.10;1.00;;;;;;7388924;19;20025;-64
2023/07/15 07:54:16;;;;;;;4.57;2.17;;;31.00;1.00;;;;;;7387996;19;20495;-65
2023/07/15 07:56:49;;;;;;;5.95;2.25;;;30.80;1.00;;;;;;7387946;19;20025;-65
2023/07/15 07:59:19;;;;;;;3.40;2.15;;;31.10;1.00;;;;;;7387969;19;20367;-65
2023/07/15 08:01:49;;;;;;;4.22;2.10;;;31.20;1.00;;;;;;7388673;19;20019;-65
2023/07/15 08:04:18;;;;;;;3.45;1.80;;;31.20;1.00;;;;;;7387390;19;20018;-65
2023/07/15 08:06:48;;;;;;;2.75;1.92;;;31.20;1.00;;;;;;7386116;19;20021;-64
2023/07/15 08:09:19;;;;;;;3.88;1.85;;;31.30;1.00;;;;;;7386765;19;20018;-66
2023/07/15 08:11:52;;;;;;;3.35;2.05;;;31.40;1.00;;;;;;7387858;19;20027;-64
2023/07/15 08:14:22;;;;;;;6.25;1.90;;;31.70;1.00;;;;;;7387447;19;20014;-64
2023/07/15 08:16:52;;;;;;;2.97;1.83;;;31.70;1.00;;;;;;7388239;19;20073;-65
2023/07/15 08:19:22;;;;;;;3.03;1.92;;;31.70;1.00;;;;;;7387140;19;20017;-65
2023/07/15 08:21:52;;;;;;;3.17;1.90;;;31.90;1.00;;;;;;7386004;19;20443;-65
2023/07/15 08:24:22;;;;;;;2.75;2.00;;;31.90;1.00;;;;;;7386970;19;20042;-64
2023/07/15 08:26:55;;;;;;;3.15;1.83;;;31.70;1.00;;;;;;7387055;19;20027;-64
2023/07/15 08:29:24;;;;;;;2.20;1.63;;;31.40;1.00;;;;;;7386959;19;20014;-65
2023/07/15 08:31:54;;;;;;;2.30;1.90;;;31.40;1.00;;;;;;7387933;19;20014;-65
2023/07/15 08:34:27;;;;;;;2.58;1.65;;;31.50;1.00;;;;;;7387442;19;20483;-64
2023/07/15 08:36:56;;;;;;;3.03;1.98;;;31.40;1.00;;;;;;7393579;19;20042;-65
2023/07/15 08:39:26;;;;;;;1.75;1.50;;;31.50;1.00;;;;;;7394794;19;20018;-65
2023/07/15 08:42:02;;;;;;;2.95;1.83;;;31.50;1.00;;;;;;7394687;19;20031;-65
2023/07/15 08:44:32;;;;;;;4.95;2.25;;;31.40;1.00;;;;;;7394049;19;20015;-65
2023/07/15 08:47:03;;;;;;;3.33;2.00;;;31.60;1.00;;;;;;7396167;19;20077;-65
2023/07/15 08:49:33;;;;;;;2.78;2.03;;;31.70;1.00;;;;;;7393737;19;20396;-65
2023/07/15 08:52:05;;;;;;;2.63;1.70;;;31.90;1.00;;;;;;7394454;19;20477;-66
2023/07/15 08:54:35;;;;;;;2.35;1.70;;;31.70;1.00;;;;;;7393634;19;20041;-64
2023/07/15 08:57:09;;;;;;;2.50;1.70;;;31.70;1.00;;;;;;7394121;19;20018;-65
2023/07/15 08:59:39;;;;;;;2.35;1.80;;;31.90;1.00;;;;;;7392506;19;20026;-65
2023/07/15 09:02:09;;;;;;;2.90;2.28;;;31.80;1.00;;;;;;7393667;19;20415;-65
2023/07/15 09:04:41;;;;;;;7.07;2.08;;;31.70;1.00;;;;;;7392170;19;20011;-65
2023/07/15 09:07:11;;;;;;;3.80;1.88;;;31.80;1.00;;;;;;7393943;19;20020;-65
2023/07/15 09:09:41;;;;;;;2.65;2.00;;;31.90;1.00;;;;;;7393680;19;20014;-65
2023/07/15 09:12:14;;;;;;;4.22;2.10;;;31.80;1.00;;;;;;7393562;19;20011;-64
2023/07/15 09:14:45;;;;;;;3.65;1.80;;;31.80;1.00;;;;;;7392599;19;20029;-64
2023/07/15 09:17:24;;;;;;;2.35;1.90;;;31.70;1.00;;;;;;7393799;19;20022;-65
2023/07/15 09:19:55;;;;;;;2.67;1.73;;;31.80;1.00;;;;;;7392130;19;20042;-64
2023/07/15 09:22:27;;;;;;;2.42;1.70;;;32.10;1.00;;;;;;7393364;19;20017;-65
2023/07/15 09:25:05;;;;;;;4.50;2.15;;;32.40;1.00;;;;;;7392011;19;20097;-65
2023/07/15 09:27:42;;;;;;;4.80;2.22;;;32.40;1.00;;;;;;7392010;19;20038;-64
2023/07/15 09:30:12;;;;;;;2.92;1.80;;;32.80;1.00;;;;;;7391704;19;20014;-64
2023/07/15 09:32:43;;;;;;;2.45;1.88;;;32.70;1.00;;;;;;7393578;19;20029;-64
2023/07/15 09:35:14;;;;;;;3.67;1.90;;;32.40;1.00;;;;;;7392016;19;20078;-65
2023/07/15 09:37:44;;;;;;;2.15;1.63;;;32.30;1.00;;;;;;7393181;19;20014;-64
2023/07/15 09:40:15;;;;;;;1.90;1.60;;;32.40;1.00;;;;;;7391937;19;20022;-65
2023/07/15 09:42:58;;;;;;;5.32;1.95;;;32.50;1.00;;;;;;7392715;19;20379;-66
2023/07/15 09:45:36;;;;;;;2.30;2.10;;;32.90;1.00;;;;;;7393464;19;20034;-65
2023/07/15 09:48:07;;;;;;;3.45;1.80;;;33.30;1.00;;;;;;7390567;19;20478;-65
2023/07/15 09:50:39;;;;;;;4.22;2.10;;;33.40;1.00;;;;;;7391265;19;20018;-65
2023/07/15 09:53:11;;;;;;;2.65;1.70;;;33.20;1.00;;;;;;7391984;19;20041;-65
2023/07/15 09:55:41;;;;;;;3.10;2.03;;;33.10;1.00;;;;;;7392047;19;20014;-65
2023/07/15 09:58:23;;;;;;;2.40;1.80;;;33.30;1.00;;;;;;7391680;19;20092;-65
2023/07/15 10:00:55;;;;;;;2.80;1.80;;;33.60;1.00;;;;;;7390743;19;20022;-65
2023/07/15 10:03:28;;;;;;;3.30;1.95;;;33.80;1.00;;;;;;7391712;19;20010;-64
2023/07/15 10:05:58;;;;;;;2.20;1.90;;;34.20;1.00;;;;;;7391470;19;20022;-65
2023/07/15 10:08:29;;;;;;;2.10;1.90;;;33.90;1.00;;;;;;7389506;19;20078;-66
2023/07/15 10:10:59;;;;;;;2.70;1.92;;;34.10;1.00;;;;;;7390082;19;20383;-65
2023/07/15 10:13:31;;;;;;;3.75;2.10;;;34.10;1.00;;;;;;7391074;19;20035;-66
2023/07/15 10:16:03;;;;;;;2.20;1.80;;;34.10;1.00;;;;;;7391461;19;20019;-65
2023/07/15 10:18:33;;;;;;;2.65;1.77;;;33.70;1.00;;;;;;7390632;19;20026;-66
2023/07/15 10:21:07;;;;;;;2.67;2.00;;;33.90;1.00;;;;;;7388958;19;20481;-66
2023/07/15 10:23:37;;;;;;;2.47;2.00;;;34.00;1.00;;;;;;7391076;19;20089;-65
2023/07/15 10:26:08;;;;;;;4.82;2.03;;;34.40;1.00;;;;;;7390636;19;20025;-65
2023/07/15 10:28:42;;;;;;;3.08;1.65;;;34.30;1.00;;;;;;7389641;19;20015;-64
2023/07/15 10:31:14;;;;;;;2.80;1.90;;;34.70;1.00;;;;;;7389267;19;20037;-65
2023/07/15 10:33:57;;;;;;;2.75;1.70;;;34.40;1.00;;;;;;7390458;19;20018;-65
2023/07/15 10:36:38;;;;;;;2.10;1.88;;;34.20;1.00;;;;;;7390373;19;20034;-65
2023/07/15 10:39:14;;;;;;;2.28;1.63;;;33.90;1.00;;;;;;7390408;19;20486;-65
2023/07/15 10:41:45;;;;;;;4.10;1.75;;;33.60;1.00;;;;;;7388866;19;20015;-65
2023/07/15 10:44:23;;;;;;;2.42;1.63;;;33.50;1.00;;;;;;7390121;19;20031;-64
2023/07/15 10:46:54;;;;;;;2.67;1.75;;;33.20;1.00;;;;;;7394571;19;20017;-64
2023/07/15 10:49:24;;;;;;;2.33;2.08;;;33.50;1.00;;;;;;7388424;19;20017;-65
2023/07/15 10:51:57;;;;;;;2.13;1.60;;;33.60;1.00;;;;;;7390376;19;20034;-65
2023/07/15 10:54:29;;;;;;;2.95;1.95;;;33.90;1.00;;;;;;7389885;19;20031;-65
2023/07/15 10:56:59;;;;;;;2.47;1.98;;;34.00;1.00;;;;;;7390246;19;20038;-64
2023/07/15 10:59:38;;;;;;;3.38;1.70;;;33.80;1.00;;;;;;7388297;19;20078;-65
2023/07/15 11:02:09;;;;;;;1.65;1.42;;;34.00;1.00;;;;;;7389694;19;20025;-66
2023/07/15 11:04:41;;;;;;;3.88;1.70;;;33.80;1.00;;;;;;7389320;19;20529;-66
2023/07/15 11:07:12;;;;;;;2.30;1.75;;;34.20;1.00;;;;;;7389920;19;20026;-66
2023/07/15 11:09:43;;;;;;;2.65;1.60;;;33.90;1.00;;;;;;7387112;19;20025;-66
2023/07/15 11:12:14;;;;;;;2.38;1.70;;;33.90;1.00;;;;;;7389291;19;20466;-65
2023/07/15 11:14:46;;;;;;;2.10;1.52;;;34.20;1.00;;;;;;7389051;19;20033;-66
2023/07/15 11:17:17;;;;;;;2.03;1.83;;;34.50;1.00;;;;;;7389414;19;20014;-66
2023/07/15 11:19:48;;;;;;;3.90;1.80;;;34.50;1.00;;;;;;7387305;19;20014;-65
2023/07/15 11:22:19;;;;;;;2.35;1.85;;;34.20;1.00;;;;;;7389861;19;20603;-66
2023/07/15 11:24:51;;;;;;;2.75;2.17;;;34.30;1.00;;;;;;7389029;19;20014;-64
2023/07/15 11:27:21;;;;;;;2.25;1.60;;;34.10;1.00;;;;;;7389023;19;20525;-65
2023/07/15 11:30:01;;;;;;;2.42;1.77;;;34.10;1.00;;;;;;7386412;19;20015;-65
2023/07/15 11:32:31;;;;;;;3.03;1.80;;;33.70;1.00;;;;;;7388776;19;20474;-64
2023/07/15 11:35:12;;;;;;;2.38;2.05;;;33.40;1.00;;;;;;7388213;19;20018;-65
2023/07/15 11:37:45;;;;;;;3.15;2.17;;;33.40;1.00;;;;;;7389298;19;20084;-65
2023/07/15 11:40:18;;;;;;;2.25;1.83;;;33.70;1.00;;;;;;7387271;19;20483;-65
2023/07/15 11:42:48;;;;;;;4.80;2.15;;;33.40;1.00;;;;;;7389725;19;20025;-64
2023/07/15 11:45:24;;;;;;;6.13;2.00;;;33.70;1.00;;;;;;7389260;19;20382;-65
2023/07/15 11:47:57;;;;;;;4.10;2.20;;;33.70;1.00;;;;;;7388818;19;20026;-64
2023/07/15 11:50:28;;;;;;;3.22;2.10;;;34.00;1.00;;;;;;7385789;19;20018;-65
2023/07/15 11:52:59;;;;;;;4.13;1.90;;;33.90;1.00;;;;;;7388671;19;20014;-65
2023/07/15 11:55:30;;;;;;;4.35;2.30;;;33.90;1.00;;;;;;7388591;19;20378;-66
2023/07/15 11:58:00;;;;;;;5.55;2.05;;;34.30;1.00;;;;;;7388564;19;20038;-65
2023/07/15 12:00:36;;;;;;;6.00;2.03;;;33.80;1.00;;;;;;7387672;19;20038;-65
2023/07/15 12:03:10;;;;;;;5.22;2.53;;;34.00;1.00;;;;;;7387986;19;20021;-65
2023/07/15 12:05:40;;;;;;;2.72;2.10;;;34.00;1.00;;;;;;7387909;19;20570;-64
2023/07/15 12:08:14;;;;;;;3.25;2.13;;;34.30;1.00;;;;;;7389299;19;20038;-65
2023/07/15 12:10:56;;;;;;;2.70;2.05;;;34.50;1.00;;;;;;7392074;19;20015;-64
2023/07/15 12:13:27;;;;;;;3.83;2.00;;;34.20;1.00;;;;;;7395177;19;20015;-64
2023/07/15 12:16:00;;;;;;;3.17;2.10;;;34.10;1.00;;;;;;7395750;19;20043;-65
2023/07/15 12:18:30;;;;;;;3.23;2.10;;;33.90;1.00;;;;;;7395284;19;20027;-66
2023/07/15 12:21:00;;;;;;;2.35;2.10;;;32.90;1.00;;;;;;7393770;19;20031;-65
2023/07/15 12:23:30;;;;;;;3.90;2.00;;;33.70;1.00;;;;;;7394574;19;20027;-66
2023/07/15 12:26:00;;;;;;;3.72;2.05;;;33.60;1.00;;;;;;7394475;19;20011;-65
2023/07/15 12:28:30;;;;;;;3.15;2.17;;;33.70;1.00;;;;;;7395067;19;20027;-65
2023/07/15 12:31:03;;;;;;;3.60;2.38;;;33.80;1.00;;;;;;7393344;19;20018;-66
2023/07/15 12:33:33;;;;;;;4.55;2.50;;;34.20;1.00;;;;;;7394821;19;20042;-67
2023/07/15 12:36:03;;;;;;;3.28;2.42;;;34.50;1.00;;;;;;7394223;19;20015;-64
2023/07/15 12:38:34;;;;;;;2.05;1.85;;;34.20;1.00;;;;;;7394409;19;20018;-65
2023/07/15 12:41:05;;;;;;;3.17;2.10;;;34.10;1.00;;;;;;7392377;19;20018;-65
2023/07/15 12:43:35;;;;;;;6.32;2.65;;;33.90;1.00;;;;;;7394809;19;20459;-65
2023/07/15 12:46:08;;;;;;;4.10;2.25;;;33.40;1.00;;;;;;7396830;19;20538;-65
2023/07/15 12:48:39;;;;;;;2.63;2.00;;;33.50;1.00;;;;;;7394506;19;20066;-65
2023/07/15 12:51:09;;;;;;;4.30;2.30;;;33.50;1.00;;;;;;7391942;19;20466;-66
2023/07/15 12:53:39;;;;;;;2.88;2.55;;;33.90;1.00;;;;;;7394516;19;20329;-65
2023/07/15 12:56:13;;;;;;;3.60;2.17;;;33.50;1.00;;;;;;7392059;19;20023;-64
2023/07/15 12:58:44;;;;;;;2.97;2.38;;;33.80;1.00;;;;;;7392550;19;20018;-66
2023/07/15 13:01:17;;;;;;;2.45;2.10;;;34.00;1.00;;;;;;7392084;19;20482;-65
2023/07/15 13:03:47;;;;;;;5.00;2.30;;;33.80;1.00;;;;;;7394192;19;20010;-65
2023/07/15 13:06:17;;;;;;;4.88;2.50;;;34.00;1.00;;;;;;7394081;19;20259;-65
2023/07/15 13:08:47;;;;;;;5.30;2.53;;;33.70;1.00;;;;;;7393496;19;20014;-65
2023/07/15 13:11:17;;;;;;;2.88;2.00;;;33.50;1.00;;;;;;7391820;19;20472;-66
2023/07/15 13:13:47;;;;;;;3.03;2.20;;;33.90;1.00;;;;;;7393514;19;20027;-65
2023/07/15 13:16:20;;;;;;;5.20;2.22;;;34.00;1.00;;;;;;7393794;19;20078;-66
2023/07/15 13:18:50;;;;;;;2.88;2.25;;;33.90;1.00;;;;;;7393651;19;20052;-66